createdAt,value
2023-06-11T00:04:03.907Z,101209.00
2023-06-11T00:09:07.938Z,101210.97
2023-06-11T00:14:10.913Z,101210.00
2023-06-11T00:19:13.856Z,101209.06
2023-06-11T00:24:16.802Z,101211.38
2023-06-11T00:29:19.199Z,101208.91
2023-06-11T00:34:22.518Z,101203.38
2023-06-11T00:39:27.459Z,101192.75
2023-06-11T00:44:30.702Z,101195.66
2023-06-11T00:49:33.381Z,101186.16
2023-06-11T00:54:36.495Z,101190.25
2023-06-11T00:59:40.032Z,101196.59
2023-06-11T01:10:35.114Z,101192.69
2023-06-11T01:15:37.479Z,101189.56
2023-06-11T01:20:59.766Z,101187.13
2023-06-11T01:26:41.790Z,101181.91
2023-06-11T01:31:45.324Z,101186.31
2023-06-11T01:36:54.647Z,101183.38
2023-06-11T01:42:24.313Z,101181.28
2023-06-11T01:47:26.833Z,101178.84
2023-06-11T01:52:29.354Z,101163.34
2023-06-11T01:57:33.702Z,101160.56
2023-06-11T02:02:36.462Z,101161.03
2023-06-11T02:07:43.372Z,101163.66
2023-06-11T02:12:46.832Z,101162.88
2023-06-11T02:17:50.663Z,101166.31
2023-06-11T02:22:53.547Z,101152.44
2023-06-11T02:28:01.895Z,101150.94
2023-06-11T02:33:06.431Z,101151.75
2023-06-11T02:38:10.649Z,101138.53
2023-06-11T02:43:13.090Z,101128.94
2023-06-11T02:48:15.736Z,101139.88
2023-06-11T02:53:18.106Z,101135.34
2023-06-11T02:58:21.689Z,101139.63
2023-06-11T03:03:24.242Z,101127.91
2023-06-11T03:08:27.715Z,101130.53
2023-06-11T03:13:33.877Z,101134.78
2023-06-11T03:18:36.405Z,101141.81
2023-06-11T03:23:39.692Z,101131.72
2023-06-11T03:28:42.028Z,101147.56
2023-06-11T03:33:44.909Z,101140.41
2023-06-11T03:38:56.345Z,101135.00
2023-06-11T03:43:58.782Z,101130.94
2023-06-11T03:49:04.189Z,101133.22
2023-06-11T03:54:08.017Z,101120.50
2023-06-11T03:59:13.408Z,101119.22
2023-06-11T04:04:16.161Z,101134.84
2023-06-11T04:09:22.708Z,101143.38
2023-06-11T04:14:27.537Z,101139.63
2023-06-11T04:33:40.020Z,101126.16
2023-06-11T04:38:48.184Z,101135.28
2023-06-11T04:43:53.856Z,101144.91
2023-06-11T04:49:05.479Z,101135.91
2023-06-11T04:54:20.845Z,101133.63
2023-06-11T04:59:36.064Z,101143.56
2023-06-11T05:04:42.000Z,101141.31
2023-06-11T05:09:51.322Z,101147.81
2023-06-11T05:15:00.217Z,101145.66
2023-06-11T05:20:06.698Z,101142.72
2023-06-11T05:25:30.808Z,101135.81
2023-06-11T05:30:46.246Z,101142.34
2023-06-11T05:35:53.480Z,101145.75
2023-06-11T05:40:58.796Z,101146.03
2023-06-11T05:46:09.653Z,101148.41
2023-06-11T05:51:30.406Z,101150.31
2023-06-11T05:56:42.635Z,101148.97
2023-06-11T06:01:49.863Z,101158.41
2023-06-11T06:07:07.254Z,101149.06
2023-06-11T06:12:20.630Z,101152.09
2023-06-11T06:17:32.512Z,101155.34
2023-06-11T06:27:57.638Z,101159.34
2023-06-11T06:33:43.847Z,101173.19
2023-06-11T06:39:11.997Z,101168.41
2023-06-11T06:44:16.887Z,101168.31
2023-06-11T06:49:22.101Z,101168.13
2023-06-11T06:54:28.304Z,101168.81
2023-06-11T06:59:35.197Z,101172.78
2023-06-11T07:04:53.204Z,101180.78
2023-06-11T07:10:12.675Z,101187.34
2023-06-11T07:15:19.275Z,101182.19
2023-06-11T07:20:31.221Z,101193.78
2023-06-11T07:25:49.025Z,101183.91
2023-06-11T07:30:58.183Z,101194.97
2023-06-11T07:36:13.066Z,101192.19
2023-06-11T07:41:18.876Z,101208.22
2023-06-11T07:46:24.106Z,101210.66
2023-06-11T07:51:30.001Z,101203.44
2023-06-11T07:56:51.016Z,101207.09
2023-06-11T08:02:01.404Z,101212.28
2023-06-11T08:07:06.258Z,101210.88
2023-06-11T08:12:18.627Z,101213.81
2023-06-11T08:17:25.416Z,101221.66
2023-06-11T08:22:29.319Z,101213.88
2023-06-11T08:27:32.325Z,101214.13
2023-06-11T08:32:40.463Z,101203.19
2023-06-11T08:37:48.871Z,101205.69
2023-06-11T08:42:54.481Z,101211.28
2023-06-11T08:48:12.592Z,101203.97
2023-06-11T08:53:19.316Z,101201.69
2023-06-11T08:58:26.662Z,101189.31
2023-06-11T09:03:38.582Z,101193.91
2023-06-11T09:08:41.821Z,101190.38
2023-06-11T09:13:54.443Z,101199.75
2023-06-11T09:18:58.985Z,101214.47
2023-06-11T09:24:10.934Z,101212.50
2023-06-11T09:29:31.080Z,101223.06
2023-06-11T09:34:41.452Z,101233.53
2023-06-11T09:39:56.922Z,101239.69
2023-06-11T09:45:16.932Z,101246.38
2023-06-11T09:50:30.071Z,101254.41
2023-06-11T09:55:57.039Z,101255.16
2023-06-11T10:01:15.020Z,101252.78
2023-06-11T10:06:28.023Z,101246.94
2023-06-11T10:11:47.679Z,101249.28
2023-06-11T10:16:53.563Z,101259.13
2023-06-11T10:22:05.776Z,101268.63
2023-06-11T10:27:19.984Z,101267.72
2023-06-11T10:32:25.561Z,101259.75
2023-06-11T10:37:47.194Z,101263.25
2023-06-11T10:42:56.965Z,101275.28
2023-06-11T10:48:02.427Z,101271.31
2023-06-11T10:53:15.606Z,101266.03
2023-06-11T10:58:30.281Z,101271.81
2023-06-11T11:03:48.609Z,101270.41
2023-06-11T11:08:56.129Z,101266.59
2023-06-11T11:14:07.382Z,101262.91
2023-06-11T11:19:16.360Z,101265.09
2023-06-11T11:24:28.060Z,101260.13
2023-06-11T11:29:36.607Z,101261.09
2023-06-11T11:34:41.510Z,101248.41
2023-06-11T11:39:51.401Z,101243.72
2023-06-11T11:44:58.962Z,101239.88
2023-06-11T11:50:03.532Z,101225.25
2023-06-11T11:55:12.185Z,101221.31
2023-06-11T12:00:29.457Z,101223.78
2023-06-11T12:05:48.277Z,101205.75
2023-06-11T12:10:53.056Z,101200.75
2023-06-11T12:15:59.616Z,101188.75
2023-06-11T12:21:08.171Z,101177.34
2023-06-11T12:26:21.683Z,101175.06
2023-06-11T12:31:28.596Z,101185.34
2023-06-11T12:36:37.006Z,101179.59
2023-06-11T12:41:47.555Z,101184.53
2023-06-11T12:47:01.268Z,101173.19
2023-06-11T12:52:23.543Z,101169.97
2023-06-11T12:57:39.441Z,101150.88
2023-06-11T13:02:45.304Z,101146.97
2023-06-11T13:13:21.309Z,101150.09
2023-06-11T13:18:26.803Z,101132.50
2023-06-11T13:23:40.829Z,101139.00
2023-06-11T13:29:07.174Z,101143.84
2023-06-11T13:34:10.320Z,101139.50
2023-06-11T13:39:20.920Z,101135.81
2023-06-11T13:44:33.829Z,101142.19
2023-06-11T13:55:02.873Z,101121.94
2023-06-11T14:00:15.696Z,101123.50
2023-06-11T14:05:26.811Z,101127.94
2023-06-11T14:10:29.482Z,101127.38
2023-06-11T14:15:46.808Z,101137.91
2023-06-11T14:20:51.504Z,101131.88
2023-06-11T14:25:54.726Z,101124.59
2023-06-11T14:31:02.094Z,101122.91
2023-06-11T14:36:16.531Z,101125.34
2023-06-11T14:41:21.539Z,101134.22
2023-06-11T14:46:27.633Z,101125.94
2023-06-11T14:51:38.876Z,101117.59
2023-06-11T14:56:49.614Z,101118.41
2023-06-11T15:02:03.330Z,101112.16
2023-06-11T15:07:29.404Z,101109.91
2023-06-11T15:12:40.371Z,101103.19
2023-06-11T15:17:50.409Z,101105.47
2023-06-11T15:23:28.939Z,101106.91
2023-06-11T15:28:33.375Z,101096.19
2023-06-11T15:39:04.090Z,101111.97
2023-06-11T15:44:07.516Z,101117.13
2023-06-11T15:49:12.634Z,101118.59
2023-06-11T15:54:19.244Z,101111.41
2023-06-11T15:59:23.951Z,101119.34
2023-06-11T16:04:30.705Z,101114.41
2023-06-11T16:09:39.200Z,101110.16
2023-06-11T16:14:45.684Z,101110.50
2023-06-11T16:20:18.260Z,101099.91
2023-06-11T16:25:22.559Z,101095.78
2023-06-11T16:30:33.628Z,101103.88
2023-06-11T16:35:37.591Z,101096.47
2023-06-11T16:40:44.128Z,101090.88
2023-06-11T16:46:01.749Z,101092.41
2023-06-11T16:51:04.737Z,101095.78
2023-06-11T16:56:12.838Z,101088.88
2023-06-11T17:01:21.020Z,101101.22
2023-06-11T17:06:56.366Z,101106.09
2023-06-11T17:12:09.499Z,101101.66
2023-06-11T17:17:24.826Z,101114.84
2023-06-11T17:22:33.801Z,101113.88
2023-06-11T17:27:37.579Z,101107.91
2023-06-11T17:32:41.268Z,101108.28
2023-06-11T17:37:53.014Z,101123.44
2023-06-11T17:43:21.927Z,101122.53
2023-06-11T17:48:31.320Z,101120.28
2023-06-11T17:59:09.982Z,101124.25
2023-06-11T18:04:14.467Z,101126.50
2023-06-11T18:09:25.010Z,101128.06
2023-06-11T18:14:30.242Z,101121.38
2023-06-11T18:19:36.656Z,101118.59
2023-06-11T18:24:40.771Z,101130.56
2023-06-11T18:29:48.041Z,101126.25
2023-06-11T18:40:23.505Z,101105.97
2023-06-11T18:45:31.005Z,101091.72
2023-06-11T18:50:40.929Z,101094.13
2023-06-11T18:55:47.024Z,101099.41
2023-06-11T19:00:50.638Z,101106.94
2023-06-11T19:05:58.985Z,101103.00
2023-06-11T19:11:06.227Z,101109.03
2023-06-11T19:16:13.070Z,101118.09
2023-06-11T19:21:21.635Z,101131.53
2023-06-11T19:26:28.617Z,101144.09
2023-06-11T19:31:32.258Z,101140.59
2023-06-11T19:36:43.827Z,101143.81
2023-06-11T19:41:48.821Z,101139.16
2023-06-11T19:46:52.985Z,101153.16
2023-06-11T19:52:07.377Z,101146.56
2023-06-11T19:57:15.793Z,101151.97
2023-06-11T20:02:29.146Z,101170.94
2023-06-11T20:07:31.532Z,101206.97
2023-06-11T20:12:35.421Z,101211.59
2023-06-11T20:22:59.864Z,101193.22
2023-06-11T20:28:04.854Z,101202.16
2023-06-11T20:33:10.128Z,101181.47
2023-06-11T20:38:14.738Z,101171.13
2023-06-11T20:43:19.686Z,101182.06
2023-06-11T20:48:27.553Z,101188.53
2023-06-11T20:53:45.081Z,101185.19
2023-06-11T20:59:02.018Z,101197.13
2023-06-11T21:04:14.620Z,101179.25
2023-06-11T21:09:21.220Z,101163.03
2023-06-11T21:14:31.225Z,101145.50
2023-06-11T21:19:40.205Z,101139.81
2023-06-11T21:24:47.011Z,101127.41
2023-06-11T21:29:56.322Z,101124.88
2023-06-11T21:35:03.150Z,101116.50
2023-06-11T21:40:19.072Z,101115.69
2023-06-11T21:45:25.444Z,101122.91
2023-06-11T21:50:31.789Z,101126.13
2023-06-11T21:55:49.304Z,101110.72
2023-06-11T22:00:58.491Z,101108.75
2023-06-11T22:06:08.093Z,101114.78
2023-06-11T22:11:15.103Z,101107.22
2023-06-11T22:16:21.662Z,101114.53
2023-06-11T22:21:30.298Z,101108.97
2023-06-11T22:26:36.619Z,101113.38
2023-06-11T22:31:45.896Z,101097.38
2023-06-11T22:36:48.937Z,101094.47
2023-06-11T22:41:56.008Z,101093.56
2023-06-11T22:52:43.617Z,101099.94
2023-06-11T22:57:48.964Z,101098.66
2023-06-11T23:02:53.237Z,101092.63
2023-06-11T23:08:02.706Z,101101.78
2023-06-11T23:13:17.153Z,101101.31
2023-06-11T23:18:27.999Z,101112.47
2023-06-11T23:23:38.769Z,101109.22
2023-06-11T23:28:52.838Z,101108.97
2023-06-11T23:34:10.946Z,101099.69
2023-06-11T23:39:18.210Z,101094.03
2023-06-11T23:44:23.152Z,101094.72
2023-06-11T23:49:26.573Z,101100.16
2023-06-11T23:54:30.624Z,101098.63
2023-06-11T23:59:38.034Z,101097.53
